KFWA/FWA METAR and TAF weather

Enter ICAO airport designator
Station Type Date Time Source
KFWA METAR 2021/07/28 18:54 UTC NOAA

KFWA 281854Z 23006KT 10SM SCT040 BKN250 30/22 A3005 RMK AO2 SLP169 T03000217


Station Type Date Time Source
KFWA Decoded METAR 2021/07/28 18:54 UTC NOAA

FORT WAYNE INTERNATIONAL, IN, United States (KFWA) 41-00N 85-12W 248M
Jul 28, 2021 - 02:54 PM EDT / 2021.07.28 1854 UTC
Wind: from the SW (230 degrees) at 7 MPH (6 KT):0
Visibility: 10 mile(s):0
Sky conditions: mostly cloudy
Temperature: 86.0 F (30.0 C)
Heat index: 91.4 F (33.0 C):1
Dew Point: 71.1 F (21.7 C)
Relative Humidity: 61%
Pressure (altimeter): 30.05 in. Hg (1017 hPa)
ob: KFWA 281854Z 23006KT 10SM SCT040 BKN250 30/22 A3005 RMK AO2 SLP169 T03000217
cycle: 19

Station Type Date Time Source
KFWA TAF 2021/07/28 18:24 UTC NOAA

TAF KFWA 281722Z 2818/2918 VRB03KT P6SM FEW035 SCT250
FM290600 22010KT P6SM VCTS BKN200CB
FM290800 22009KT 5SM -TSRA OVC090CB
FM291100 22011KT 6SM SHRA BR BKN120
FM291400 24014KT 6SM SHRA BR BKN070
FM291600 25014KT P6SM BKN045

Example: see airport list